Time;durP1;ratioP1;P1;durP2;ratioP2;P2;SDS_P1;SDS_P2;PMS_P1;PMS_P2;Temp;Humidity;BMP_temperature;BMP_pressure;BME280_temperature;BME280_humidity;BME280_pressure;Samples;Min_cycle;Max_cycle;Signal;HPM_P1;HPM_P2
2022/09/16 00:01:21;;;;;;;0.00;0.00;;;;;;;10.84;100.00;96011.63;5053934;28;20040;-76
2022/09/16 00:03:46;;;;;;;0.17;0.10;;;;;;;10.80;100.00;96005.16;5041902;28;20029;-76
2022/09/16 00:06:21;;;;;;;0.10;0.10;;;;;;;10.79;100.00;96009.72;5038351;28;20518;-76
2022/09/16 00:08:48;;;;;;;0.17;0.10;;;;;;;10.73;100.00;96010.75;5057564;28;20344;-76
2022/09/16 00:11:15;;;;;;;0.10;0.10;;;;;;;10.70;100.00;96011.28;5021768;28;20214;-76
2022/09/16 00:13:40;;;;;;;0.10;0.10;;;;;;;10.67;100.00;96017.16;5056616;28;20028;-77
2022/09/16 00:16:11;;;;;;;0.10;0.10;;;;;;;10.67;100.00;96011.00;5056368;28;20032;-77
2022/09/16 00:18:40;;;;;;;0.10;0.10;;;;;;;10.57;100.00;96009.06;5038628;28;20099;-77
2022/09/16 00:21:09;;;;;;;0.10;0.10;;;;;;;10.51;100.00;96008.25;5054242;28;20353;-77
2022/09/16 00:23:35;;;;;;;0.10;0.10;;;;;;;10.44;100.00;96013.00;5056399;28;20032;-77
2022/09/16 00:26:03;;;;;;;0.08;0.08;;;;;;;10.41;100.00;96012.72;5054965;28;20075;-77
2022/09/16 00:28:29;;;;;;;0.10;0.10;;;;;;;10.39;100.00;96006.81;5054017;28;20050;-77
2022/09/16 00:30:58;;;;;;;0.03;0.03;;;;;;;10.34;100.00;96010.25;5056722;28;20246;-76
2022/09/16 00:33:24;;;;;;;0.10;0.10;;;;;;;10.35;100.00;96006.53;5055974;28;21222;-76
2022/09/16 00:35:50;;;;;;;0.10;0.10;;;;;;;10.36;100.00;96010.00;5055648;28;20028;-76
2022/09/16 00:38:15;;;;;;;0.10;0.10;;;;;;;10.36;100.00;96007.34;5056878;28;20028;-76
2022/09/16 00:40:48;;;;;;;0.00;0.00;;;;;;;10.35;100.00;96011.06;5057372;28;20065;-77
2022/09/16 00:43:16;;;;;;;0.10;0.10;;;;;;;10.32;100.00;96007.03;5053160;28;20379;-77
2022/09/16 00:45:44;;;;;;;0.10;0.10;;;;;;;10.32;100.00;96010.50;5054225;28;20047;-77
2022/09/16 00:48:20;;;;;;;0.10;0.10;;;;;;;10.34;100.00;96010.25;5026710;28;20483;-76
2022/09/16 00:51:10;;;;;;;0.10;0.10;;;;;;;10.32;100.00;96015.88;5044876;28;21085;-77
2022/09/16 00:53:51;;;;;;;0.10;0.10;;;;;;;10.31;100.00;96014.25;5061822;28;20359;-76
2022/09/16 00:56:22;;;;;;;0.10;0.10;;;;;;;10.31;100.00;96016.13;5063656;28;20724;-76
2022/09/16 00:59:00;;;;;;;0.10;0.10;;;;;;;10.35;100.00;96013.72;5064335;28;20028;-76
2022/09/16 01:01:27;;;;;;;0.10;0.10;;;;;;;10.37;100.00;96003.59;5049692;28;20527;-76
2022/09/16 01:03:56;;;;;;;0.10;0.10;;;;;;;10.39;100.00;96004.94;5062939;28;20089;-76
2022/09/16 01:06:24;;;;;;;0.10;0.10;;;;;;;10.41;100.00;96002.00;5060584;28;20024;-76
2022/09/16 01:08:50;;;;;;;0.10;0.10;;;;;;;10.46;100.00;96005.53;5060613;28;20028;-76
2022/09/16 01:11:18;;;;;;;0.10;0.10;;;;;;;10.37;100.00;96009.75;5061597;28;20049;-76
2022/09/16 01:13:46;;;;;;;0.10;0.10;;;;;;;10.45;100.00;96013.81;5064441;28;20068;-74
2022/09/16 01:16:31;;;;;;;0.10;0.10;;;;;;;10.45;100.00;96008.47;5040279;28;20041;-76
2022/09/16 01:19:18;;;;;;;0.00;0.00;;;;;;;10.48;100.00;96002.59;5061447;28;20611;-76
2022/09/16 01:22:08;;;;;;;0.20;0.10;;;;;;;10.48;100.00;96002.59;5062745;28;20040;-76
2022/09/16 01:24:51;;;;;;;0.10;0.10;;;;;;;10.49;100.00;96001.53;5047104;28;20604;-76
2022/09/16 01:27:39;;;;;;;0.10;0.10;;;;;;;10.47;100.00;96009.00;5059596;28;20083;-77
2022/09/16 01:30:20;;;;;;;0.22;0.13;;;;;;;10.42;100.00;96009.75;5059182;28;20071;-76
2022/09/16 01:33:08;;;;;;;0.20;0.20;;;;;;;10.37;100.00;96011.63;5060204;28;20583;-76
2022/09/16 01:36:02;;;;;;;0.10;0.10;;;;;;;10.32;100.00;96017.72;5048014;28;20435;-76
2022/09/16 01:39:03;;;;;;;0.10;0.10;;;;;;;10.22;100.00;96013.13;5061023;28;20060;-76
2022/09/16 01:41:53;;;;;;;0.10;0.10;;;;;;;10.13;100.00;96005.81;5056449;28;20079;-76
2022/09/16 01:44:40;;;;;;;0.10;0.10;;;;;;;10.09;100.00;96007.38;5062890;28;20036;-76
2022/09/16 01:47:29;;;;;;;0.10;0.10;;;;;;;10.01;100.00;96008.66;5062377;28;20310;-76
2022/09/16 01:50:07;;;;;;;0.20;0.10;;;;;;;9.96;100.00;96005.94;5066155;28;20498;-76
2022/09/16 01:53:02;;;;;;;0.10;0.10;;;;;;;9.87;100.00;96005.59;5033974;28;20433;-76
2022/09/16 01:55:50;;;;;;;0.10;0.10;;;;;;;9.76;100.00;96007.38;5055232;28;20068;-76
2022/09/16 01:58:25;;;;;;;0.10;0.10;;;;;;;9.70;100.00;96010.25;5032229;28;20540;-76
2022/09/16 02:00:57;;;;;;;0.10;0.10;;;;;;;9.62;100.00;96003.50;5060088;28;20137;-76
2022/09/16 02:03:34;;;;;;;0.20;0.10;;;;;;;9.58;100.00;96010.44;5039560;28;20043;-76
2022/09/16 02:06:05;;;;;;;0.10;0.10;;;;;;;9.52;100.00;96008.75;5058470;28;20025;-76
2022/09/16 02:08:39;;;;;;;0.15;0.10;;;;;;;9.48;100.00;96013.78;5057767;28;20442;-76
2022/09/16 02:11:09;;;;;;;0.10;0.10;;;;;;;9.43;100.00;96008.41;5057141;28;20055;-76
2022/09/16 02:13:41;;;;;;;0.10;0.10;;;;;;;9.39;100.00;96011.81;5055793;28;20029;-76
2022/09/16 02:16:17;;;;;;;0.10;0.10;;;;;;;9.32;100.00;96014.69;5057661;28;20036;-76
2022/09/16 02:18:49;;;;;;;0.15;0.10;;;;;;;9.28;100.00;96010.13;5057928;28;20501;-76
2022/09/16 02:21:18;;;;;;;0.10;0.10;;;;;;;9.24;100.00;96009.78;5056737;28;20040;-76
2022/09/16 02:23:52;;;;;;;0.10;0.10;;;;;;;9.23;100.00;96002.84;5061035;28;20131;-76
2022/09/16 02:26:22;;;;;;;0.10;0.10;;;;;;;9.25;100.00;96014.06;5063205;28;20044;-76
2022/09/16 02:28:49;;;;;;;0.10;0.10;;;;;;;9.25;100.00;96008.72;5058945;28;20589;-76
2022/09/16 02:31:19;;;;;;;0.10;0.10;;;;;;;9.23;100.00;96012.72;5059893;28;20036;-76
2022/09/16 02:33:55;;;;;;;0.10;0.10;;;;;;;9.21;100.00;96007.63;5042187;28;20033;-76
2022/09/16 02:36:24;;;;;;;0.10;0.10;;;;;;;9.24;100.00;96015.13;5059316;28;20039;-76
2022/09/16 02:38:59;;;;;;;0.10;0.10;;;;;;;9.24;100.00;96012.47;5056661;28;20027;-76
2022/09/16 02:41:25;;;;;;;0.13;0.10;;;;;;;9.18;100.00;96014.28;5046805;28;20326;-76
2022/09/16 02:43:50;;;;;;;0.10;0.10;;;;;;;9.17;100.00;96009.97;5059335;28;20051;-76
2022/09/16 02:46:28;;;;;;;0.10;0.10;;;;;;;9.17;100.00;96004.66;5056901;28;20043;-76
2022/09/16 02:49:27;;;;;;;0.10;0.10;;;;;;;9.15;100.00;96012.09;5054051;28;20047;-76
2022/09/16 02:52:04;;;;;;;0.20;0.20;;;;;;;9.16;100.00;96003.03;5059634;28;20470;-76
2022/09/16 02:54:59;;;;;;;0.10;0.10;;;;;;;9.13;100.00;96000.06;5059504;28;20082;-76
2022/09/16 02:57:26;;;;;;;0.10;0.10;;;;;;;9.13;100.00;96000.06;5043635;28;20044;-76
2022/09/16 02:59:52;;;;;;;0.20;0.20;;;;;;;9.12;100.00;95996.59;5057870;28;20032;-76
2022/09/16 03:02:17;;;;;;;0.10;0.10;;;;;;;9.14;100.00;95999.81;5028748;28;20462;-76
2022/09/16 03:04:44;;;;;;;0.10;0.10;;;;;;;9.14;100.00;95997.16;5057573;28;20028;-76
2022/09/16 03:07:11;;;;;;;0.10;0.10;;;;;;;9.13;100.00;95992.06;5054072;28;20040;-76
2022/09/16 03:09:42;;;;;;;0.13;0.10;;;;;;;9.08;100.00;96002.69;5057048;28;20044;-76
2022/09/16 03:12:45;;;;;;;0.10;0.10;;;;;;;9.09;100.00;95990.94;5029062;28;20036;-76
2022/09/16 03:15:42;;;;;;;0.10;0.10;;;;;;;9.09;100.00;95990.94;5021318;28;20460;-75
2022/09/16 03:18:10;;;;;;;0.10;0.10;;;;;;;9.10;100.00;95984.53;5037658;28;20135;-76
2022/09/16 03:20:57;;;;;;;0.15;0.10;;;;;;;9.10;100.00;95981.88;5059949;28;20107;-76
2022/09/16 03:23:33;;;;;;;0.10;0.10;;;;;;;9.18;100.00;95982.25;5058261;28;20068;-75
2022/09/16 03:26:19;;;;;;;0.10;0.10;;;;;;;9.35;100.00;95974.16;5040026;28;20576;-75
2022/09/16 03:29:01;;;;;;;0.17;0.17;;;;;;;9.52;100.00;95976.72;5058482;28;20047;-75
2022/09/16 03:31:37;;;;;;;0.10;0.10;;;;;;;9.71;100.00;95979.81;5058591;28;20387;-75
2022/09/16 03:34:14;;;;;;;0.10;0.10;;;;;;;9.83;100.00;95976.97;5059284;28;20373;-75
2022/09/16 03:36:50;;;;;;;0.10;0.10;;;;;;;9.87;100.00;95978.06;5057027;28;20123;-75
2022/09/16 03:39:16;;;;;;;0.10;0.10;;;;;;;9.84;100.00;95975.91;5053308;28;20111;-75
2022/09/16 03:41:41;;;;;;;0.10;0.10;;;;;;;9.88;100.00;95974.31;5059116;28;20497;-75
2022/09/16 03:44:07;;;;;;;0.10;0.10;;;;;;;9.91;100.00;95979.19;5056560;28;20028;-75
2022/09/16 03:46:32;;;;;;;0.10;0.10;;;;;;;9.87;100.00;95972.72;5059397;28;20067;-75
2022/09/16 03:48:58;;;;;;;0.13;0.10;;;;;;;9.81;100.00;95968.41;5057656;28;20036;-76
2022/09/16 03:51:24;;;;;;;0.10;0.10;;;;;;;9.86;100.00;95971.13;5060086;28;20779;-75
2022/09/16 03:53:53;;;;;;;0.10;0.10;;;;;;;9.90;100.00;95972.22;5042583;28;20391;-75
2022/09/16 03:56:21;;;;;;;0.20;0.10;;;;;;;9.92;100.00;95972.78;5057833;28;20127;-75
2022/09/16 03:58:47;;;;;;;0.10;0.10;;;;;;;9.84;100.00;95970.56;5057759;28;20197;-75
2022/09/16 04:01:13;;;;;;;0.03;0.03;;;;;;;9.76;100.00;95974.50;5056395;28;20027;-75
2022/09/16 04:03:39;;;;;;;0.10;0.10;;;;;;;9.82;100.00;95968.16;5059751;28;20028;-76
2022/09/16 04:06:05;;;;;;;0.10;0.10;;;;;;;9.90;100.00;95975.69;5060744;28;20036;-75
2022/09/16 04:08:30;;;;;;;0.10;0.10;;;;;;;9.93;100.00;95975.19;5059844;28;20029;-76
2022/09/16 04:10:58;;;;;;;0.20;0.10;;;;;;;9.94;100.00;95971.44;5057239;28;20369;-76
2022/09/16 04:13:25;;;;;;;0.10;0.10;;;;;;;9.98;100.00;95972.56;5055859;28;20044;-77
2022/09/16 04:15:50;;;;;;;0.15;0.10;;;;;;;9.98;100.00;95963.72;5020933;28;20024;-77
2022/09/16 04:18:17;;;;;;;0.40;0.20;;;;;;;9.93;100.00;95966.34;5054636;28;20032;-78
2022/09/16 04:20:43;;;;;;;0.10;0.10;;;;;;;9.93;100.00;95961.81;5042254;28;20150;-77
2022/09/16 04:23:08;;;;;;;0.05;0.05;;;;;;;9.98;100.00;95966.41;5057057;28;20032;-77
2022/09/16 04:25:35;;;;;;;0.15;0.10;;;;;;;9.97;100.00;95970.16;5056826;28;20074;-77
2022/09/16 04:28:01;;;;;;;0.10;0.10;;;;;;;10.03;100.00;95969.09;5061118;28;20040;-76
2022/09/16 04:30:26;;;;;;;0.10;0.10;;;;;;;10.05;100.00;95967.00;5054846;28;20031;-77
2022/09/16 04:32:55;;;;;;;0.15;0.10;;;;;;;10.10;100.00;95969.69;5059451;28;20407;-77
2022/09/16 04:35:22;;;;;;;0.10;0.10;;;;;;;10.12;100.00;95967.59;5038834;28;20462;-77
2022/09/16 04:37:48;;;;;;;0.10;0.10;;;;;;;10.16;100.00;95965.19;5056247;28;20050;-77
2022/09/16 04:40:15;;;;;;;0.10;0.10;;;;;;;10.21;100.00;95966.03;5057359;28;20021;-77
2022/09/16 04:42:40;;;;;;;0.10;0.10;;;;;;;10.15;100.00;95966.25;5057774;28;20033;-77
2022/09/16 04:45:06;;;;;;;0.10;0.10;;;;;;;10.07;100.00;95964.88;5057498;28;20467;-78
2022/09/16 04:47:32;;;;;;;0.10;0.10;;;;;;;9.98;100.00;95963.72;5060862;28;20039;-77
2022/09/16 04:49:57;;;;;;;0.00;0.00;;;;;;;9.96;100.00;95964.00;5040484;28;20517;-78
2022/09/16 04:52:23;;;;;;;0.10;0.10;;;;;;;9.99;100.00;95973.34;5052930;28;20031;-78
2022/09/16 04:54:48;;;;;;;0.10;0.10;;;;;;;9.95;100.00;95964.22;5056005;28;20063;-77
2022/09/16 04:57:14;;;;;;;0.10;0.10;;;;;;;9.92;100.00;95970.91;5057271;28;20116;-77
2022/09/16 04:59:39;;;;;;;0.20;0.13;;;;;;;9.90;100.00;95967.69;5058492;28;20040;-77
2022/09/16 05:02:05;;;;;;;0.10;0.10;;;;;;;9.88;100.00;95967.13;5043105;28;20052;-77
2022/09/16 05:04:31;;;;;;;0.10;0.10;;;;;;;9.89;100.00;95967.94;5060182;28;20042;-77
2022/09/16 05:06:57;;;;;;;0.10;0.10;;;;;;;9.85;100.00;95967.63;5041923;28;20047;-77
2022/09/16 05:09:22;;;;;;;0.10;0.10;;;;;;;9.88;100.00;95964.44;5053244;28;20048;-77
2022/09/16 05:11:48;;;;;;;0.10;0.10;;;;;;;9.80;100.00;95967.59;5057599;28;20456;-75
2022/09/16 05:14:17;;;;;;;0.10;0.10;;;;;;;9.86;100.00;95976.44;5056876;28;20054;-77
2022/09/16 05:16:43;;;;;;;0.10;0.10;;;;;;;9.85;100.00;95980.19;5042062;28;20487;-77
2022/09/16 05:19:11;;;;;;;0.10;0.10;;;;;;;9.90;100.00;95967.69;5054989;28;20407;-77
2022/09/16 05:21:38;;;;;;;0.10;0.10;;;;;;;9.88;100.00;95969.78;5058089;28;20048;-77
2022/09/16 05:24:07;;;;;;;0.10;0.10;;;;;;;9.91;100.00;95976.50;5043150;28;20363;-76
2022/09/16 05:26:34;;;;;;;0.10;0.10;;;;;;;9.90;100.00;95970.34;5048381;28;20089;-76
2022/09/16 05:29:02;;;;;;;0.10;0.10;;;;;;;9.94;100.00;95973.31;5058446;28;20112;-76
2022/09/16 05:31:30;;;;;;;0.10;0.10;;;;;;;9.97;100.00;95975.50;5054737;28;20040;-77
2022/09/16 05:33:58;;;;;;;0.10;0.10;;;;;;;9.97;100.00;95968.28;5055304;28;20123;-76
2022/09/16 05:36:25;;;;;;;0.10;0.10;;;;;;;10.02;100.00;95962.13;5054706;28;20059;-76
2022/09/16 05:38:51;;;;;;;0.10;0.10;;;;;;;10.06;100.00;95960.59;5039399;28;20055;-76
2022/09/16 05:41:16;;;;;;;0.10;0.10;;;;;;;10.11;100.00;95962.47;5059222;28;20024;-76
2022/09/16 05:43:42;;;;;;;0.10;0.10;;;;;;;10.15;100.00;95961.72;5061396;28;20055;-76
2022/09/16 05:46:10;;;;;;;0.10;0.10;;;;;;;10.22;100.00;95958.81;5059912;28;20119;-76
2022/09/16 05:48:38;;;;;;;0.20;0.20;;;;;;;10.13;100.00;95960.38;5059698;28;20669;-76
2022/09/16 05:51:05;;;;;;;0.25;0.10;;;;;;;10.25;100.00;95955.66;5059905;28;20040;-76
2022/09/16 05:53:35;;;;;;;0.10;0.10;;;;;;;10.33;100.00;95955.16;5046113;28;20021;-76
2022/09/16 05:56:07;;;;;;;0.10;0.10;;;;;;;10.36;100.00;95946.63;5042672;28;20121;-76
2022/09/16 05:58:34;;;;;;;0.10;0.10;;;;;;;10.33;100.00;95955.97;5058606;28;20025;-76
2022/09/16 06:01:06;;;;;;;0.10;0.10;;;;;;;10.39;100.00;95956.00;5046331;28;20159;-76
2022/09/16 06:03:33;;;;;;;0.10;0.10;;;;;;;10.35;100.00;95960.25;5059817;28;20352;-76
2022/09/16 06:06:04;;;;;;;0.10;0.10;;;;;;;10.30;100.00;95956.50;5060498;28;20385;-76
2022/09/16 06:08:31;;;;;;;0.13;0.13;;;;;;;10.34;100.00;95956.75;5058400;28;20029;-76
2022/09/16 06:11:00;;;;;;;0.10;0.10;;;;;;;10.36;100.00;95967.22;5059290;28;20788;-76
2022/09/16 06:13:27;;;;;;;0.10;0.10;;;;;;;10.20;100.00;95967.09;5061208;28;20411;-77
2022/09/16 06:15:53;;;;;;;0.10;0.10;;;;;;;10.19;100.00;95970.81;5061806;28;20509;-77
2022/09/16 06:18:20;;;;;;;0.10;0.10;;;;;;;10.17;100.00;95967.59;5057208;28;20034;-77
2022/09/16 06:20:46;;;;;;;0.00;0.00;;;;;;;10.21;100.00;95974.06;5059830;28;20037;-76
2022/09/16 06:23:12;;;;;;;0.10;0.10;;;;;;;10.25;100.00;95961.78;5041575;28;20059;-77
2022/09/16 06:25:38;;;;;;;0.10;0.10;;;;;;;10.36;100.00;95968.03;5059383;28;20107;-76
2022/09/16 06:28:03;;;;;;;0.10;0.10;;;;;;;10.48;100.00;95960.59;5062155;28;20227;-77
2022/09/16 06:30:29;;;;;;;0.10;0.10;;;;;;;10.56;100.00;95953.94;5057202;28;20657;-77
2022/09/16 06:32:55;;;;;;;0.10;0.10;;;;;;;10.74;100.00;95953.50;5059609;28;20192;-77
2022/09/16 06:35:20;;;;;;;0.10;0.10;;;;;;;10.71;100.00;95942.50;5026223;28;20423;-76
2022/09/16 06:37:46;;;;;;;0.20;0.20;;;;;;;10.67;100.00;95952.94;5060554;28;20391;-77
2022/09/16 06:40:11;;;;;;;0.10;0.10;;;;;;;10.69;100.00;95950.81;5041898;28;20093;-77
2022/09/16 06:42:37;;;;;;;0.10;0.10;;;;;;;10.91;100.00;95955.97;5061320;28;20096;-77
2022/09/16 06:45:03;;;;;;;0.10;0.10;;;;;;;10.85;100.00;95949.00;5025628;28;20024;-77
2022/09/16 06:47:32;;;;;;;0.10;0.10;;;;;;;10.68;100.00;95959.09;5042377;28;20340;-77
2022/09/16 06:49:59;;;;;;;0.10;0.10;;;;;;;10.55;100.00;95957.69;5057068;28;20444;-76
2022/09/16 06:52:24;;;;;;;0.10;0.10;;;;;;;10.52;100.00;95961.69;5057169;28;20086;-77
2022/09/16 06:54:50;;;;;;;0.10;0.10;;;;;;;10.46;100.00;95960.06;5058951;28;20032;-77
2022/09/16 06:57:18;;;;;;;0.10;0.10;;;;;;;10.46;100.00;95965.41;5060210;28;20763;-77
2022/09/16 06:59:44;;;;;;;0.10;0.10;;;;;;;10.63;100.00;95962.53;5053401;28;20028;-77
2022/09/16 07:02:10;;;;;;;0.20;0.10;;;;;;;10.74;100.00;95966.06;5023483;28;20295;-77
2022/09/16 07:04:37;;;;;;;0.10;0.10;;;;;;;10.85;100.00;95954.34;5059461;28;20032;-77
2022/09/16 07:07:03;;;;;;;0.10;0.10;;;;;;;10.99;100.00;95960.03;5059726;28;20036;-77
2022/09/16 07:09:29;;;;;;;0.10;0.10;;;;;;;11.05;100.00;95956.28;5027553;28;20426;-77
2022/09/16 07:11:58;;;;;;;0.10;0.10;;;;;;;11.01;100.00;95963.22;5033565;28;20168;-77
2022/09/16 07:14:24;;;;;;;0.10;0.10;;;;;;;10.90;100.00;95958.94;5057537;28;20044;-78
2022/09/16 07:16:50;;;;;;;0.20;0.10;;;;;;;10.73;100.00;95957.22;5043060;28;20032;-78
2022/09/16 07:19:15;;;;;;;0.10;0.10;;;;;;;10.77;100.00;95961.00;5058418;28;20467;-78
2022/09/16 07:21:41;;;;;;;0.10;0.10;;;;;;;10.70;100.00;95960.44;5058129;28;20051;-78
2022/09/16 07:24:09;;;;;;;0.17;0.17;;;;;;;10.77;100.00;95961.00;5059694;28;20555;-78
2022/09/16 07:26:36;;;;;;;0.10;0.10;;;;;;;11.04;100.00;95960.81;5043577;28;20346;-78
2022/09/16 07:29:04;;;;;;;0.10;0.10;;;;;;;11.23;100.00;95955.00;5026632;28;20021;-78
2022/09/16 07:31:37;;;;;;;0.30;0.20;;;;;;;11.33;100.00;95955.81;5059004;28;20044;-78
2022/09/16 07:34:04;;;;;;;0.10;0.10;;;;;;;11.42;100.00;95958.78;5055277;28;20062;-78
2022/09/16 07:36:36;;;;;;;0.10;0.10;;;;;;;11.59;100.00;95951.28;5016369;28;20020;-78
2022/09/16 07:39:03;;;;;;;0.13;0.13;;;;;;;11.87;100.00;95955.38;5029273;28;20318;-78
2022/09/16 07:41:32;;;;;;;0.10;0.10;;;;;;;11.91;100.00;95951.09;5057508;28;20016;-78
2022/09/16 07:43:58;;;;;;;0.10;0.10;;;;;;;11.92;100.00;95960.72;5058655;28;20078;-78
2022/09/16 07:46:26;;;;;;;0.10;0.10;;;;;;;11.99;100.00;95958.59;5046667;28;20016;-78
2022/09/16 07:48:53;;;;;;;0.10;0.10;;;;;;;11.84;100.00;95958.59;5058788;28;20029;-78
2022/09/16 07:51:21;;;;;;;0.10;0.10;;;;;;;11.90;100.00;95970.09;5029422;28;20106;-78
2022/09/16 07:53:52;;;;;;;0.20;0.20;;;;;;;11.96;100.00;95964.47;5039117;28;20445;-78
2022/09/16 07:56:20;;;;;;;0.10;0.10;;;;;;;11.85;100.00;95962.88;5030503;28;20035;-78
2022/09/16 07:58:46;;;;;;;0.10;0.10;;;;;;;11.73;100.00;95946.22;5024146;28;20036;-78
2022/09/16 08:01:15;;;;;;;0.10;0.10;;;;;;;11.79;100.00;95949.72;5056701;28;20534;-78
2022/09/16 08:03:41;;;;;;;0.10;0.10;;;;;;;11.80;100.00;95959.34;5011783;28;20017;-78
2022/09/16 08:06:13;;;;;;;0.10;0.10;;;;;;;11.62;100.00;95961.50;5058713;28;20058;-78
2022/09/16 08:08:39;;;;;;;0.30;0.30;;;;;;;11.47;100.00;95960.66;5056967;28;20025;-78
2022/09/16 08:11:06;;;;;;;0.13;0.13;;;;;;;11.37;100.00;95962.28;5026183;28;20786;-78
2022/09/16 08:13:33;;;;;;;0.10;0.10;;;;;;;11.20;100.00;95980.41;5059260;28;20430;-77
2022/09/16 08:16:02;;;;;;;0.10;0.10;;;;;;;11.22;100.00;95967.59;5031261;28;20356;-77
2022/09/16 08:18:27;;;;;;;0.10;0.10;;;;;;;11.34;100.00;95973.50;5055412;28;20137;-77
2022/09/16 08:20:53;;;;;;;0.10;0.10;;;;;;;11.70;100.00;95965.53;5057735;28;20507;-76
2022/09/16 08:23:19;;;;;;;0.17;0.17;;;;;;;11.91;100.00;95975.22;5057659;28;20040;-76
2022/09/16 08:25:44;;;;;;;0.10;0.10;;;;;;;11.90;100.00;95989.66;5058742;28;20033;-76
2022/09/16 08:28:14;;;;;;;0.10;0.10;;;;;;;11.84;100.00;95985.41;5039876;28;20037;-76
2022/09/16 08:30:40;;;;;;;0.10;0.10;;;;;;;11.76;100.00;95980.53;5055149;28;20443;-76
2022/09/16 08:33:06;;;;;;;0.10;0.10;;;;;;;11.84;100.00;95987.28;5039680;28;20048;-76
2022/09/16 08:35:32;;;;;;;0.10;0.10;;;;;;;11.89;100.00;95985.38;5041730;28;20043;-76
2022/09/16 08:37:58;;;;;;;0.10;0.10;;;;;;;11.99;100.00;95992.66;5061566;28;20036;-76
2022/09/16 08:40:25;;;;;;;0.20;0.10;;;;;;;12.14;100.00;95989.13;5057168;28;20032;-76
2022/09/16 08:43:08;;;;;;;0.20;0.20;;;;;;;12.13;100.00;95991.00;5054393;28;20037;-77
2022/09/16 08:45:39;;;;;;;0.10;0.10;;;;;;;12.37;100.00;95985.88;5056524;28;20055;-76
2022/09/16 08:48:19;;;;;;;0.10;0.10;;;;;;;12.30;100.00;95992.63;5058217;28;20054;-76
2022/09/16 08:50:47;;;;;;;0.10;0.10;;;;;;;12.23;100.00;96001.75;5025495;28;20393;-78
2022/09/16 08:53:32;;;;;;;0.10;0.10;;;;;;;12.05;100.00;96004.16;5039456;28;20063;-78
2022/09/16 08:56:02;;;;;;;0.10;0.10;;;;;;;11.97;100.00;96003.63;5026636;28;20052;-76
2022/09/16 08:58:39;;;;;;;0.10;0.10;;;;;;;11.73;100.00;95997.94;5057453;28;20463;-76
2022/09/16 09:01:17;;;;;;;0.10;0.10;;;;;;;11.71;100.00;95997.41;5021452;28;20083;-76
2022/09/16 09:03:46;;;;;;;0.10;0.10;;;;;;;11.73;100.00;96002.50;5055199;28;20033;-76
2022/09/16 09:06:26;;;;;;;0.10;0.10;;;;;;;11.96;100.00;96006.56;5052835;28;20049;-76
2022/09/16 09:09:04;;;;;;;0.10;0.10;;;;;;;12.19;100.00;95991.81;5054393;28;20040;-76
2022/09/16 09:11:46;;;;;;;0.10;0.10;;;;;;;12.26;100.00;95995.03;5054702;28;21323;-76
2022/09/16 09:14:33;;;;;;;0.13;0.13;;;;;;;12.46;100.00;95995.00;5048871;28;20048;-77
2022/09/16 09:17:12;;;;;;;0.10;0.10;;;;;;;13.11;100.00;95990.50;5070914;28;20036;-76
2022/09/16 09:20:03;;;;;;;0.10;0.10;;;;;;;13.67;100.00;95989.41;5055451;28;20358;-76
2022/09/16 09:22:45;;;;;;;0.10;0.10;;;;;;;14.21;100.00;95988.47;5057348;28;20392;-77
2022/09/16 09:25:35;;;;;;;0.10;0.10;;;;;;;14.24;100.00;95977.16;5058636;28;20111;-77
2022/09/16 09:28:22;;;;;;;0.15;0.10;;;;;;;14.10;100.00;95990.47;5063896;28;20104;-77
2022/09/16 09:31:10;;;;;;;0.10;0.10;;;;;;;14.62;100.00;95983.53;5042255;28;20059;-77
2022/09/16 09:34:04;;;;;;;0.10;0.10;;;;;;;14.68;100.00;95993.16;5060616;28;20093;-77
2022/09/16 09:36:58;;;;;;;0.10;0.10;;;;;;;13.99;100.00;95985.44;5047872;28;20110;-77
2022/09/16 09:40:08;;;;;;;0.03;0.03;;;;;;;13.94;100.00;95984.41;5059931;28;20036;-77
2022/09/16 09:43:12;;;;;;;0.10;0.10;;;;;;;14.40;100.00;95972.44;5038755;28;20441;-77
2022/09/16 09:45:59;;;;;;;0.10;0.10;;;;;;;14.84;100.00;95974.94;5060892;28;20032;-77
2022/09/16 09:48:49;;;;;;;0.10;0.10;;;;;;;15.37;100.00;95972.13;5012882;28;20043;-77
2022/09/16 09:51:36;;;;;;;0.10;0.10;;;;;;;14.58;100.00;95984.41;5053827;28;20052;-77
2022/09/16 09:54:25;;;;;;;0.10;0.10;;;;;;;13.64;100.00;95979.25;5059265;28;20042;-77
2022/09/16 09:56:56;;;;;;;0.10;0.10;;;;;;;13.23;100.00;95987.53;5062744;28;20506;-77
2022/09/16 09:59:28;;;;;;;;;;;;;;;13.18;100.00;95987.53;5042635;28;20759;-77
2022/09/16 10:01:55;;;;;;;0.10;0.10;;;;;;;12.95;100.00;95972.84;5055021;28;19959;-77
2022/09/16 10:04:21;;;;;;;0.10;0.10;;;;;;;12.88;100.00;95975.03;5048287;28;20601;-77
2022/09/16 10:06:49;;;;;;;0.10;0.10;;;;;;;12.88;100.00;95980.41;5058360;28;20063;-76
2022/09/16 10:09:16;;;;;;;0.10;0.10;;;;;;;12.88;100.00;95969.66;5044559;28;20053;-77
2022/09/16 10:11:51;;;;;;;0.10;0.10;;;;;;;12.77;100.00;95973.47;5053393;28;20407;-78
2022/09/16 10:14:31;;;;;;;0.20;0.20;;;;;;;13.81;100.00;95974.28;5056877;28;20036;-77
2022/09/16 10:17:01;;;;;;;0.30;0.20;;;;;;;15.23;100.00;95965.84;5013517;28;20101;-78
2022/09/16 10:19:30;;;;;;;0.13;0.13;;;;;;;15.64;100.00;95966.16;5041240;28;20345;-78
2022/09/16 10:22:11;;;;;;;0.10;0.10;;;;;;;15.24;100.00;95960.16;5025405;28;20085;-79
2022/09/16 10:24:39;;;;;;;0.10;0.10;;;;;;;14.10;100.00;95958.19;5030820;28;20498;-78
2022/09/16 10:27:18;;;;;;;0.10;0.10;;;;;;;14.06;100.00;95972.47;5060777;28;20043;-78
2022/09/16 10:29:44;;;;;;;0.10;0.10;;;;;;;13.78;100.00;95966.78;5061281;28;20035;-78
2022/09/16 10:32:16;;;;;;;0.10;0.10;;;;;;;13.72;100.00;95967.09;5032367;28;20036;-78
2022/09/16 10:34:44;;;;;;;0.10;0.10;;;;;;;13.88;100.00;95965.88;5062421;28;20036;-79
2022/09/16 10:37:12;;;;;;;0.10;0.10;;;;;;;15.18;100.00;95964.03;4707644;28;10000987;-78
2022/09/16 10:39:44;;;;;;;0.10;0.10;;;;;;;16.15;100.00;95962.63;5042527;28;20017;-78
2022/09/16 10:42:36;;;;;;;0.10;0.10;;;;;;;15.75;100.00;95958.69;5025334;28;20177;-78
2022/09/16 10:45:13;;;;;;;0.10;0.10;;;;;;;15.27;100.00;95962.31;5055894;28;20048;-76
2022/09/16 10:47:39;;;;;;;0.10;0.10;;;;;;;14.34;100.00;95969.00;5059510;28;20558;-78
2022/09/16 10:50:06;;;;;;;0.10;0.10;;;;;;;13.62;100.00;95979.53;5030735;28;20859;-78
2022/09/16 10:52:41;;;;;;;0.10;0.10;;;;;;;13.19;100.00;95980.25;5044438;28;20017;-78
2022/09/16 10:55:20;;;;;;;0.10;0.10;;;;;;;13.11;100.00;95981.66;5033514;28;20036;-78
2022/09/16 10:57:46;;;;;;;0.10;0.10;;;;;;;13.18;100.00;95981.34;5041410;28;20074;-78
2022/09/16 11:00:16;;;;;;;0.10;0.10;;;;;;;13.11;100.00;95987.03;5056950;28;20413;-77
2022/09/16 11:02:59;;;;;;;0.10;0.10;;;;;;;13.09;100.00;95978.44;5040238;28;20036;-77
2022/09/16 11:05:31;;;;;;;0.10;0.10;;;;;;;13.19;100.00;95982.94;5035764;28;20053;-78
2022/09/16 11:08:11;;;;;;;0.10;0.10;;;;;;;13.79;100.00;95981.03;5061082;28;20467;-77
2022/09/16 11:10:54;;;;;;;0.10;0.10;;;;;;;18.53;100.00;95963.31;5055963;28;20049;-78
2022/09/16 11:13:36;;;;;;;0.15;0.15;;;;;;;23.97;69.50;95960.84;5040428;28;20033;-78
2022/09/16 11:16:35;;;;;;;0.10;0.10;;;;;;;25.32;51.14;95950.00;5033185;28;20024;-78
2022/09/16 11:19:11;;;;;;;0.10;0.10;;;;;;;22.57;69.39;95950.19;5031126;28;20020;-78
2022/09/16 11:21:46;;;;;;;0.20;0.20;;;;;;;21.64;81.76;95952.25;5060753;28;20117;-78
2022/09/16 11:24:59;;;;;;;0.10;0.10;;;;;;;19.65;81.71;95960.19;5061777;28;20069;-78
2022/09/16 11:27:43;;;;;;;0.10;0.10;;;;;;;17.24;97.72;95953.03;4996655;28;20048;-78
2022/09/16 11:30:21;;;;;;;0.10;0.10;;;;;;;16.29;100.00;95963.47;5056556;28;20081;-78
2022/09/16 11:33:05;;;;;;;0.10;0.10;;;;;;;15.32;100.00;95956.03;5029749;28;20353;-78
2022/09/16 11:35:43;;;;;;;0.10;0.10;;;;;;;15.13;100.00;95953.31;4998847;28;20261;-78
2022/09/16 11:38:17;;;;;;;0.10;0.10;;;;;;;14.73;100.00;95963.50;5057097;28;20029;-77
2022/09/16 11:40:49;;;;;;;0.10;0.10;;;;;;;14.61;100.00;95970.34;5058838;28;20033;-78
2022/09/16 11:43:47;;;;;;;0.20;0.20;;;;;;;20.63;84.84;95958.69;5057086;28;20028;-78
2022/09/16 11:46:22;;;;;;;0.20;0.20;;;;;;;25.90;52.36;95945.44;5053702;28;20041;-78
2022/09/16 11:49:25;;;;;;;0.10;0.10;;;;;;;28.53;38.68;95937.97;5058116;28;20028;-79
2022/09/16 11:52:15;;;;;;;0.10;0.10;;;;;;;31.03;34.36;95922.94;5057162;28;20032;-79
2022/09/16 11:55:03;;;;;;;0.20;0.20;;;;;;;31.61;31.92;95921.75;5043097;28;20039;-79